createdAt,value
2022-08-27T00:01:16.510Z,1.02
2022-08-27T00:03:46.862Z,0.90
2022-08-27T00:06:15.629Z,0.88
2022-08-27T00:08:45.632Z,0.80
2022-08-27T00:11:13.472Z,0.90
2022-08-27T00:13:40.732Z,1.00
2022-08-27T00:16:09.536Z,0.82
2022-08-27T00:18:38.112Z,1.20
2022-08-27T00:21:05.110Z,1.05
2022-08-27T00:23:34.546Z,0.90
2022-08-27T00:26:01.679Z,1.00
2022-08-27T00:28:29.648Z,1.00
2022-08-27T00:30:56.540Z,1.10
2022-08-27T00:33:23.680Z,0.82
2022-08-27T00:35:50.820Z,0.85
2022-08-27T00:38:18.465Z,0.73
2022-08-27T00:40:45.687Z,0.82
2022-08-27T00:43:13.059Z,0.80
2022-08-27T00:45:43.513Z,0.88
2022-08-27T00:48:15.141Z,1.05
2022-08-27T00:50:50.699Z,1.20
2022-08-27T00:53:23.100Z,0.90
2022-08-27T00:55:55.250Z,0.90
2022-08-27T00:58:32.650Z,0.90
2022-08-27T01:01:01.090Z,0.80
2022-08-27T01:03:27.925Z,1.10
2022-08-27T01:05:58.654Z,1.02
2022-08-27T01:08:29.320Z,0.80
2022-08-27T01:10:58.439Z,1.10
2022-08-27T01:13:59.209Z,1.00
2022-08-27T01:16:25.063Z,1.23
2022-08-27T01:18:53.751Z,0.90
2022-08-27T01:21:29.875Z,1.10
2022-08-27T01:24:06.865Z,1.20
2022-08-27T01:26:34.222Z,0.80
2022-08-27T01:29:01.302Z,0.90
2022-08-27T01:31:29.327Z,1.20
2022-08-27T01:34:04.842Z,1.00
2022-08-27T01:36:31.980Z,0.80
2022-08-27T01:38:59.089Z,0.85
2022-08-27T01:41:26.155Z,0.98
2022-08-27T01:43:53.315Z,0.85
2022-08-27T01:46:25.385Z,1.15
2022-08-27T01:48:52.499Z,1.00
2022-08-27T01:51:19.550Z,1.10
2022-08-27T01:53:46.742Z,1.00
2022-08-27T01:56:13.871Z,0.70
2022-08-27T01:58:40.543Z,1.15
2022-08-27T02:01:11.216Z,1.02
2022-08-27T02:03:39.188Z,1.00
2022-08-27T02:06:08.439Z,0.90
2022-08-27T02:08:35.526Z,1.05
2022-08-27T02:11:02.550Z,1.25
2022-08-27T02:13:29.310Z,1.10
2022-08-27T02:15:55.999Z,1.02
2022-08-27T02:18:22.837Z,1.05
2022-08-27T02:20:49.768Z,0.82
2022-08-27T02:23:16.804Z,2.25
2022-08-27T02:25:43.654Z,1.00
2022-08-27T02:28:10.407Z,0.82
2022-08-27T02:30:37.619Z,1.08
2022-08-27T02:33:05.694Z,1.00
2022-08-27T02:35:34.592Z,1.17
2022-08-27T02:38:02.568Z,1.02
2022-08-27T02:40:29.744Z,0.85
2022-08-27T02:42:56.449Z,0.85
2022-08-27T02:45:23.708Z,1.10
2022-08-27T02:47:50.204Z,0.93
2022-08-27T02:50:17.478Z,0.77
2022-08-27T02:52:46.430Z,0.80
2022-08-27T02:55:17.222Z,0.90
2022-08-27T02:57:44.386Z,0.85
2022-08-27T03:00:14.562Z,1.20
2022-08-27T03:02:41.598Z,0.90
2022-08-27T03:05:08.985Z,1.23
2022-08-27T03:07:35.626Z,1.70
2022-08-27T03:10:02.313Z,0.98
2022-08-27T03:12:28.806Z,0.98
2022-08-27T03:14:55.434Z,0.90
2022-08-27T03:17:40.375Z,1.00
2022-08-27T03:20:08.309Z,1.05
2022-08-27T03:22:35.487Z,1.00
2022-08-27T03:25:03.207Z,0.93
2022-08-27T03:27:29.759Z,0.93
2022-08-27T03:29:58.679Z,1.02
2022-08-27T03:32:28.579Z,0.98
2022-08-27T03:34:58.559Z,0.90
2022-08-27T03:37:25.682Z,1.33
2022-08-27T03:39:52.555Z,1.05
2022-08-27T03:42:19.194Z,1.05
2022-08-27T03:44:45.772Z,1.20
2022-08-27T03:47:12.544Z,0.98
2022-08-27T03:49:39.128Z,0.90
2022-08-27T03:52:08.548Z,1.02
2022-08-27T03:54:36.990Z,0.82
2022-08-27T03:57:04.118Z,0.73
2022-08-27T03:59:31.213Z,0.88
2022-08-27T04:01:57.954Z,0.90
2022-08-27T04:04:24.686Z,1.50
2022-08-27T04:06:51.407Z,1.20
2022-08-27T04:09:18.239Z,0.77
2022-08-27T04:11:45.206Z,0.95
2022-08-27T04:14:24.886Z,0.98
2022-08-27T04:16:56.256Z,1.30
2022-08-27T04:19:27.281Z,0.93
2022-08-27T04:22:00.294Z,1.23
2022-08-27T04:24:27.147Z,1.05
2022-08-27T04:26:53.714Z,1.10
2022-08-27T04:29:20.259Z,1.00
2022-08-27T04:31:46.963Z,1.25
2022-08-27T04:34:13.699Z,0.82
2022-08-27T04:36:40.285Z,0.90
2022-08-27T04:39:06.828Z,1.08
2022-08-27T04:41:34.285Z,0.93
2022-08-27T04:44:07.128Z,1.08
2022-08-27T04:46:37.382Z,1.10
2022-08-27T04:49:10.544Z,1.20
2022-08-27T04:51:37.936Z,1.10
2022-08-27T04:54:07.490Z,0.90
2022-08-27T04:56:36.100Z,1.30
2022-08-27T04:59:04.663Z,1.25
2022-08-27T05:01:31.941Z,1.15
2022-08-27T05:03:58.792Z,1.00
2022-08-27T05:06:25.626Z,1.30
2022-08-27T05:08:54.359Z,1.08
2022-08-27T05:11:23.166Z,1.30
2022-08-27T05:13:50.289Z,1.23
2022-08-27T05:16:20.732Z,1.17
2022-08-27T05:18:48.874Z,1.35
2022-08-27T05:21:27.423Z,1.17
2022-08-27T05:23:55.000Z,1.10
2022-08-27T05:26:22.098Z,1.30
2022-08-27T05:28:48.913Z,1.40
2022-08-27T05:31:16.935Z,1.08
2022-08-27T05:33:44.244Z,1.20
2022-08-27T05:36:20.529Z,1.35
2022-08-27T05:38:49.297Z,1.60
2022-08-27T05:41:19.096Z,1.30
2022-08-27T05:43:49.908Z,1.27
2022-08-27T05:46:20.443Z,1.23
2022-08-27T05:48:49.624Z,9.55
2022-08-27T05:51:25.946Z,9.20
2022-08-27T05:54:05.589Z,4.30
2022-08-27T05:56:37.001Z,3.58
2022-08-27T05:59:23.854Z,2.30
2022-08-27T06:01:53.684Z,2.05
2022-08-27T06:04:21.801Z,1.60
2022-08-27T06:06:49.177Z,1.30
2022-08-27T06:09:21.305Z,1.40
2022-08-27T06:11:48.319Z,1.02
2022-08-27T06:14:15.714Z,1.10
2022-08-27T06:16:42.809Z,0.93
2022-08-27T06:19:12.145Z,1.02
2022-08-27T06:21:40.112Z,0.98
2022-08-27T06:24:07.331Z,0.80
2022-08-27T06:26:34.028Z,0.80
2022-08-27T06:29:04.944Z,0.82
2022-08-27T06:31:31.989Z,0.93
2022-08-27T06:34:07.324Z,0.98
2022-08-27T06:36:38.239Z,0.70
2022-08-27T06:39:05.821Z,1.13
2022-08-27T06:41:33.584Z,1.00
2022-08-27T06:44:00.138Z,1.00
2022-08-27T06:46:29.382Z,0.80
2022-08-27T06:48:59.107Z,0.85
2022-08-27T06:51:35.339Z,0.85
2022-08-27T06:54:04.517Z,0.70
2022-08-27T06:56:31.924Z,1.00
2022-08-27T06:59:01.669Z,0.98
2022-08-27T07:01:31.856Z,0.88
2022-08-27T07:04:01.403Z,0.77
2022-08-27T07:06:31.732Z,1.10
2022-08-27T07:08:58.902Z,0.88
2022-08-27T07:11:26.347Z,1.13
2022-08-27T07:13:52.982Z,1.00
2022-08-27T07:16:23.985Z,1.00
2022-08-27T07:18:52.478Z,1.20
2022-08-27T07:21:22.319Z,1.10
2022-08-27T07:23:52.872Z,1.10
2022-08-27T07:26:20.544Z,1.05
2022-08-27T07:28:47.951Z,1.10
2022-08-27T07:31:19.132Z,1.10
2022-08-27T07:33:53.145Z,1.38
2022-08-27T07:36:23.956Z,0.98
2022-08-27T07:38:59.117Z,1.15
2022-08-27T07:41:30.860Z,1.52
2022-08-27T07:44:18.858Z,1.00
2022-08-27T07:46:48.393Z,0.93
2022-08-27T07:49:16.288Z,1.08
2022-08-27T07:51:42.924Z,0.75
2022-08-27T07:54:09.515Z,1.15
2022-08-27T07:56:36.052Z,0.90
2022-08-27T07:59:02.589Z,0.80
2022-08-27T08:01:29.897Z,1.13
2022-08-27T08:03:56.730Z,1.25
2022-08-27T08:06:23.255Z,1.13
2022-08-27T08:08:50.123Z,0.90
2022-08-27T08:11:18.225Z,0.60
2022-08-27T08:13:46.422Z,0.80
2022-08-27T08:16:13.990Z,0.88
2022-08-27T08:18:41.149Z,0.82
2022-08-27T08:21:10.773Z,1.23
2022-08-27T08:23:38.329Z,1.00
2022-08-27T08:26:05.717Z,0.90
2022-08-27T08:28:32.480Z,0.80
2022-08-27T08:30:59.728Z,0.82
2022-08-27T08:33:27.679Z,1.38
2022-08-27T08:35:54.443Z,0.82
2022-08-27T08:38:21.829Z,1.02
2022-08-27T08:40:54.566Z,0.70
2022-08-27T08:43:46.923Z,0.90
2022-08-27T08:46:22.458Z,0.52
2022-08-27T08:51:35.285Z,0.80
2022-08-27T08:54:03.653Z,0.60
2022-08-27T08:56:55.170Z,0.70
2022-08-27T08:59:54.846Z,0.88
2022-08-27T09:02:21.427Z,0.70
2022-08-27T09:04:47.945Z,0.88
2022-08-27T09:07:36.800Z,0.93
2022-08-27T09:10:33.815Z,0.60
2022-08-27T09:13:04.071Z,0.73
2022-08-27T09:15:34.851Z,0.73
2022-08-27T09:18:14.453Z,0.63
2022-08-27T09:20:46.681Z,0.65
2022-08-27T09:23:33.450Z,0.65
2022-08-27T09:25:59.971Z,0.80
2022-08-27T09:28:47.442Z,0.60
2022-08-27T09:31:20.693Z,1.00
2022-08-27T09:33:56.201Z,0.80
2022-08-27T09:36:24.475Z,0.80
2022-08-27T09:38:58.610Z,0.65
2022-08-27T09:41:33.432Z,0.65
2022-08-27T09:44:09.431Z,0.70
2022-08-27T09:46:36.310Z,0.80
2022-08-27T09:49:15.251Z,0.70
2022-08-27T09:51:45.016Z,0.55
2022-08-27T09:54:23.842Z,0.75
2022-08-27T09:56:50.440Z,0.60
2022-08-27T09:59:27.215Z,0.90
2022-08-27T10:02:02.515Z,0.70
2022-08-27T10:04:51.483Z,0.80
2022-08-27T10:07:43.621Z,0.90
2022-08-27T10:10:17.882Z,0.90
2022-08-27T10:12:55.011Z,0.73
2022-08-27T10:15:23.713Z,0.80
2022-08-27T10:17:50.165Z,0.90
2022-08-27T10:20:29.536Z,1.00
2022-08-27T10:23:16.563Z,0.77
2022-08-27T10:26:09.911Z,0.50
2022-08-27T10:28:45.099Z,0.60
2022-08-27T10:31:14.689Z,0.65
2022-08-27T10:33:59.247Z,0.63
2022-08-27T10:36:41.229Z,0.85
2022-08-27T10:39:21.566Z,0.73
2022-08-27T10:41:58.533Z,0.63
2022-08-27T10:44:31.465Z,0.90
2022-08-27T10:47:22.488Z,0.60
2022-08-27T10:50:05.960Z,0.55
2022-08-27T10:52:43.420Z,0.70
2022-08-27T10:55:18.634Z,0.43
2022-08-27T10:58:19.345Z,0.90
2022-08-27T11:00:56.104Z,0.63
2022-08-27T11:03:34.136Z,0.70
2022-08-27T11:06:10.386Z,0.75
2022-08-27T11:12:12.742Z,0.70
2022-08-27T11:16:52.750Z,0.50
2022-08-27T11:19:26.355Z,0.60
2022-08-27T11:22:48.280Z,0.73
2022-08-27T11:25:35.963Z,0.60
2022-08-27T11:28:05.328Z,0.80
2022-08-27T11:30:38.414Z,0.55
2022-08-27T11:33:13.942Z,0.70
2022-08-27T11:36:10.316Z,0.55
2022-08-27T11:38:42.667Z,0.60
2022-08-27T11:41:14.999Z,0.70
2022-08-27T11:43:44.532Z,0.60
2022-08-27T11:46:11.980Z,0.70
2022-08-27T11:48:43.086Z,0.60
2022-08-27T11:51:28.904Z,0.50
2022-08-27T11:53:59.327Z,0.80
2022-08-27T11:56:28.815Z,0.77
2022-08-27T11:58:56.428Z,0.60
2022-08-27T12:01:31.579Z,0.90
2022-08-27T12:04:08.348Z,0.68
2022-08-27T12:06:50.372Z,0.75
2022-08-27T12:09:23.487Z,1.08
2022-08-27T12:12:02.599Z,0.75
2022-08-27T12:14:47.966Z,0.90
2022-08-27T12:17:30.464Z,0.90
2022-08-27T12:20:31.122Z,0.75
2022-08-27T12:23:43.883Z,0.68
2022-08-27T12:26:25.570Z,0.88
2022-08-27T12:29:16.477Z,0.90
2022-08-27T12:31:46.540Z,0.82
2022-08-27T12:34:23.636Z,0.82
2022-08-27T12:36:53.433Z,1.08
2022-08-27T12:39:26.668Z,0.95
2022-08-27T12:41:55.745Z,0.90
2022-08-27T12:44:31.485Z,1.13
2022-08-27T12:47:02.030Z,0.80
2022-08-27T12:49:39.362Z,0.52
2022-08-27T12:52:43.947Z,1.10
2022-08-27T12:55:13.474Z,0.80
2022-08-27T12:58:16.057Z,0.80
2022-08-27T13:01:17.071Z,0.88
2022-08-27T13:03:49.986Z,1.00
2022-08-27T13:06:26.628Z,0.80
2022-08-27T13:09:00.035Z,0.80
2022-08-27T13:11:32.547Z,1.17
2022-08-27T13:14:12.343Z,1.10
2022-08-27T13:16:46.769Z,1.10
2022-08-27T13:19:34.316Z,1.10
2022-08-27T13:22:02.391Z,0.90
2022-08-27T13:24:50.521Z,0.90
2022-08-27T13:27:24.857Z,0.80
2022-08-27T13:29:52.002Z,1.00
2022-08-27T13:32:18.878Z,0.77
2022-08-27T13:34:46.709Z,0.80
2022-08-27T13:37:47.701Z,0.68
2022-08-27T13:40:31.067Z,0.80
2022-08-27T13:43:12.393Z,0.88
2022-08-27T13:45:41.646Z,1.02
2022-08-27T13:48:18.373Z,0.63
2022-08-27T13:50:52.965Z,0.80
2022-08-27T13:53:42.771Z,0.63
2022-08-27T13:56:10.191Z,0.50
2022-08-27T13:58:37.255Z,0.70
2022-08-27T14:01:10.194Z,0.85
2022-08-27T14:03:47.703Z,0.80
2022-08-27T14:06:35.828Z,0.80
2022-08-27T14:09:30.123Z,0.70
2022-08-27T14:12:06.211Z,0.80
2022-08-27T14:14:42.544Z,0.90
2022-08-27T14:17:37.072Z,0.82
2022-08-27T14:20:05.328Z,0.70
2022-08-27T14:22:34.360Z,0.73
2022-08-27T14:25:02.200Z,0.80
2022-08-27T14:27:29.017Z,0.95
2022-08-27T14:29:55.603Z,0.90
2022-08-27T14:32:22.198Z,0.68
2022-08-27T14:34:48.723Z,0.68
2022-08-27T14:37:15.769Z,0.70
2022-08-27T14:39:43.465Z,0.70
2022-08-27T14:42:12.145Z,1.35
2022-08-27T14:44:38.741Z,0.70
2022-08-27T14:47:09.631Z,0.80
2022-08-27T14:49:40.553Z,1.00
2022-08-27T14:52:08.761Z,1.10
2022-08-27T14:54:35.485Z,0.93
2022-08-27T14:57:03.653Z,1.02
2022-08-27T14:59:30.197Z,1.33
2022-08-27T15:01:58.286Z,1.10
2022-08-27T15:04:26.256Z,1.50
2022-08-27T15:06:54.184Z,1.17
2022-08-27T15:09:20.901Z,1.20
2022-08-27T15:11:48.677Z,1.20
2022-08-27T15:14:23.535Z,0.90
2022-08-27T15:16:50.335Z,1.17
2022-08-27T15:19:17.352Z,1.25
2022-08-27T15:21:47.432Z,1.40
2022-08-27T15:24:18.697Z,1.33
2022-08-27T15:26:45.820Z,1.15
2022-08-27T15:29:12.783Z,1.38
2022-08-27T15:31:39.777Z,1.27
2022-08-27T15:34:06.617Z,1.20
2022-08-27T15:36:33.904Z,1.58
2022-08-27T15:39:01.016Z,1.20
2022-08-27T15:41:29.420Z,1.25
2022-08-27T15:43:56.293Z,1.40
2022-08-27T15:46:23.071Z,1.20
2022-08-27T15:48:49.696Z,1.25
2022-08-27T15:51:17.980Z,1.35
2022-08-27T15:53:44.585Z,1.63
2022-08-27T15:56:11.144Z,1.50
2022-08-27T15:58:40.408Z,1.60
2022-08-27T16:01:13.157Z,1.95
2022-08-27T16:03:41.954Z,3.60
2022-08-27T16:06:08.962Z,3.67
2022-08-27T16:08:39.197Z,2.92
2022-08-27T16:11:09.642Z,2.53
2022-08-27T16:13:37.807Z,2.10
2022-08-27T16:16:06.545Z,2.00
2022-08-27T16:18:34.547Z,2.28
2022-08-27T16:21:03.503Z,1.73
2022-08-27T16:23:30.836Z,1.67
2022-08-27T16:25:57.748Z,1.70
2022-08-27T16:28:25.068Z,1.35
2022-08-27T16:30:54.395Z,1.20
2022-08-27T16:33:21.196Z,1.42
2022-08-27T16:35:48.315Z,0.98
2022-08-27T16:38:15.138Z,1.48
2022-08-27T16:40:48.678Z,1.45
2022-08-27T16:43:20.809Z,1.25
2022-08-27T16:45:49.221Z,1.38
2022-08-27T16:48:35.962Z,1.30
2022-08-27T16:51:04.958Z,1.30
2022-08-27T16:53:34.596Z,1.10
2022-08-27T16:56:01.744Z,1.33
2022-08-27T16:58:30.906Z,1.52
2022-08-27T17:01:09.272Z,1.50
2022-08-27T17:04:05.036Z,1.35
2022-08-27T17:06:29.583Z,1.55
2022-08-27T17:08:57.500Z,1.20
2022-08-27T17:11:27.773Z,1.23
2022-08-27T17:13:58.571Z,1.42
2022-08-27T17:16:29.454Z,1.25
2022-08-27T17:18:58.386Z,1.50
2022-08-27T17:21:29.695Z,1.35
2022-08-27T17:23:59.320Z,1.50
2022-08-27T17:26:26.329Z,1.70
2022-08-27T17:28:53.345Z,1.70
2022-08-27T17:31:28.152Z,1.35
2022-08-27T17:33:59.162Z,1.63
2022-08-27T17:36:29.680Z,1.85
2022-08-27T17:38:57.026Z,1.70
2022-08-27T17:41:28.647Z,1.48
2022-08-27T17:44:00.509Z,1.70
2022-08-27T17:46:27.758Z,1.90
2022-08-27T17:48:54.903Z,1.70
2022-08-27T17:51:22.353Z,1.33
2022-08-27T17:53:53.497Z,1.92
2022-08-27T17:56:24.599Z,1.50
2022-08-27T17:58:53.233Z,1.60
2022-08-27T18:01:28.484Z,1.95
2022-08-27T18:03:57.162Z,1.65
2022-08-27T18:06:25.183Z,1.95
2022-08-27T18:08:51.821Z,1.83
2022-08-27T18:11:18.957Z,2.00
2022-08-27T18:13:52.199Z,1.90
2022-08-27T18:16:19.374Z,1.60
2022-08-27T18:18:46.010Z,1.92
2022-08-27T18:21:12.710Z,1.85
2022-08-27T18:23:40.125Z,1.70
2022-08-27T18:26:11.912Z,1.52
2022-08-27T18:28:38.776Z,2.00
2022-08-27T18:31:08.961Z,2.47
2022-08-27T18:33:36.613Z,2.30
2022-08-27T18:36:04.822Z,2.10
2022-08-27T18:38:31.628Z,1.67
2022-08-27T18:41:00.673Z,1.80
2022-08-27T18:43:35.045Z,1.80
2022-08-27T18:46:06.602Z,1.90
2022-08-27T18:48:34.133Z,2.00
2022-08-27T18:51:03.694Z,1.73
2022-08-27T18:53:34.112Z,2.28
2022-08-27T18:56:01.176Z,2.28
2022-08-27T18:58:28.440Z,2.30
2022-08-27T19:00:58.505Z,2.83
2022-08-27T19:03:29.394Z,2.47
2022-08-27T19:05:56.297Z,2.20
2022-08-27T19:08:24.272Z,2.58
2022-08-27T19:10:50.822Z,2.10
2022-08-27T19:13:17.398Z,2.03
2022-08-27T19:15:50.184Z,2.15
2022-08-27T19:18:17.880Z,2.05
2022-08-27T19:20:44.554Z,2.42
2022-08-27T19:23:11.296Z,2.22
2022-08-27T19:25:37.914Z,1.98
2022-08-27T19:28:04.563Z,2.67
2022-08-27T19:30:31.611Z,2.55
2022-08-27T19:32:58.394Z,3.17
2022-08-27T19:35:25.272Z,4.03
2022-08-27T19:37:53.552Z,5.30
2022-08-27T19:40:22.084Z,5.28
2022-08-27T19:42:49.463Z,5.57
2022-08-27T19:45:16.256Z,4.93
2022-08-27T19:47:50.826Z,4.00
2022-08-27T19:50:17.838Z,4.68
2022-08-27T19:52:44.594Z,4.32
2022-08-27T19:55:14.113Z,4.47
2022-08-27T19:57:41.948Z,4.35
2022-08-27T20:00:10.422Z,4.65
2022-08-27T20:02:37.522Z,3.92
2022-08-27T20:05:21.321Z,3.05
2022-08-27T20:07:50.293Z,3.40
2022-08-27T20:10:18.982Z,3.92
2022-08-27T20:12:45.619Z,3.72
2022-08-27T20:15:12.718Z,3.78
2022-08-27T20:17:39.904Z,3.35
2022-08-27T20:20:07.077Z,3.60
2022-08-27T20:22:33.636Z,3.25
2022-08-27T20:25:00.422Z,2.90
2022-08-27T20:27:27.092Z,3.10
2022-08-27T20:29:54.845Z,3.67
2022-08-27T20:32:22.797Z,2.72
2022-08-27T20:34:51.519Z,2.65
2022-08-27T20:37:18.679Z,2.55
2022-08-27T20:39:45.462Z,3.95
2022-08-27T20:42:12.127Z,3.08
2022-08-27T20:44:38.877Z,3.00
2022-08-27T20:47:06.126Z,3.08
2022-08-27T20:49:35.146Z,3.03
2022-08-27T20:52:04.618Z,3.60
2022-08-27T20:54:33.920Z,2.88
2022-08-27T20:57:02.261Z,2.72
2022-08-27T20:59:47.908Z,3.08
2022-08-27T21:02:16.470Z,3.10
2022-08-27T21:04:48.668Z,2.97
2022-08-27T21:07:16.933Z,2.53
2022-08-27T21:09:56.380Z,3.10
2022-08-27T21:12:27.939Z,2.95
2022-08-27T21:14:55.879Z,2.90
2022-08-27T21:17:24.509Z,2.58
2022-08-27T21:19:51.113Z,2.70
2022-08-27T21:22:18.057Z,2.38
2022-08-27T21:24:47.119Z,2.90
2022-08-27T21:27:18.094Z,2.95
2022-08-27T21:29:45.024Z,2.50
2022-08-27T21:32:12.459Z,3.03
2022-08-27T21:34:39.778Z,2.80
2022-08-27T21:37:06.376Z,2.70
2022-08-27T21:39:34.311Z,2.70
2022-08-27T21:42:01.604Z,3.30
2022-08-27T21:44:29.293Z,3.00
2022-08-27T21:46:55.881Z,2.63
2022-08-27T21:49:22.502Z,2.78
2022-08-27T21:51:49.325Z,2.83
2022-08-27T21:54:16.631Z,2.38
2022-08-27T21:56:43.646Z,2.40
2022-08-27T21:59:10.192Z,2.15
2022-08-27T22:01:37.194Z,3.03
2022-08-27T22:04:04.158Z,2.90
2022-08-27T22:06:30.917Z,2.65
2022-08-27T22:08:57.506Z,2.50
2022-08-27T22:11:25.608Z,2.70
2022-08-27T22:13:53.274Z,2.30
2022-08-27T22:16:19.920Z,2.17
2022-08-27T22:18:46.527Z,2.42
2022-08-27T22:21:13.449Z,2.78
2022-08-27T22:23:42.307Z,2.42
2022-08-27T22:26:11.531Z,2.78
2022-08-27T22:28:38.130Z,2.47
2022-08-27T22:31:06.607Z,2.38
2022-08-27T22:33:33.421Z,2.47
2022-08-27T22:35:59.993Z,2.25
2022-08-27T22:38:26.511Z,2.40
2022-08-27T22:40:53.256Z,2.40
2022-08-27T22:43:20.001Z,2.50
2022-08-27T22:45:46.586Z,2.40
2022-08-27T22:48:13.294Z,2.30
2022-08-27T22:50:40.095Z,2.08
2022-08-27T22:53:06.738Z,2.50
2022-08-27T22:55:33.370Z,2.20
2022-08-27T22:58:02.030Z,2.22
2022-08-27T23:00:32.133Z,1.95
2022-08-27T23:02:59.515Z,2.30
2022-08-27T23:05:26.933Z,2.08
2022-08-27T23:07:54.786Z,2.00
2022-08-27T23:10:24.151Z,2.05
2022-08-27T23:12:53.544Z,1.73
2022-08-27T23:15:21.813Z,2.30
2022-08-27T23:17:48.709Z,1.98
2022-08-27T23:20:16.125Z,1.77
2022-08-27T23:22:42.831Z,2.47
2022-08-27T23:25:30.160Z,1.90
2022-08-27T23:27:59.612Z,1.60
2022-08-27T23:30:27.509Z,1.95
2022-08-27T23:32:55.400Z,1.88
2022-08-27T23:35:24.182Z,2.05
2022-08-27T23:37:51.950Z,1.77
2022-08-27T23:40:20.959Z,1.58
2022-08-27T23:42:49.449Z,1.80
2022-08-27T23:45:20.796Z,1.90
2022-08-27T23:47:47.340Z,1.73
2022-08-27T23:50:15.005Z,1.60
2022-08-27T23:52:41.981Z,1.63
2022-08-27T23:55:10.903Z,1.83
2022-08-27T23:57:39.542Z,1.70
